Startpagina
METAR-TAF:

METAR-TAF

Vliegvelden :

Teheran Mehrabad International Airport

Teheran, Iran

breedte: 35-41N, lengte: 051-21E, hoogte: 1204 m

Actueel weer

Dit bericht is 36 minuten geleden gemaakt, om 21:30 UTC
Wind 4 kt uit het noordoosten
Temperatuur 31°C
Vochtigheid 16%
Druk 1007 hPa
Zicht 10 km of meer
geen wolken onder 1500 m en geen cumulonimbus

METAR: OIII 182130Z 05004KT CAVOK 31/02 Q1006 A2973

Tijdstip: 02:36 (22:06 UTC)

Verwachting

Dit bericht is 4 uur en het 56 minuten geleden gemaakt, om 17:10 UTC
Verwachting geldig van 18 om 18 UTC tot 19 om 24 UTC
Wind 8 kt uit het oostnoordoosten
Zicht: 7000 m
Tijdelijke
van 19 om 10 UTC tot 19 om 18 UTC
Wind 16 kt uit het oostzuidoosten
Tijdelijke
van 19 om 18 UTC tot 19 om 24 UTC
Wind 19 kt uit het oostzuidoosten

TAF: OIII 181710Z 1818/1924 06004MPS 7000 NSC TEMPO 1910/1918 12008MPS TEMPO 1918/1924 12010MPS

Waarnemingen en weersverwachtingen van meer dan 4000 vliegvelden (METAR en TAF).

De beschikbare stations zijn de gele en rode punten op de kaart.

Ga met uw muis naar het station om de naam te zien.

Klik dan om waarnemingen en weersverwachtingen te zien.

kaart wijzigen: klik op de groene knoppen met een zwart kruis om in te zoomen, op de groene knop met een streepje om uit te zoomen of op de groene pijlen voor aangrenzende kaarten.


METAR-TAF: